Time;durP1;ratioP1;P1;durP2;ratioP2;P2;SDS_P1;SDS_P2;PMS_P1;PMS_P2;Temp;Humidity;BMP_temperature;BMP_pressure;BME280_temperature;BME280_humidity;BME280_pressure;Samples;Min_cycle;Max_cycle;Signal;HPM_P1;HPM_P2
2022/11/26 07:43:16;;;;;;;;;;;;;;;9.70;62.70;98116.88;4204565;28;10280;-61
2022/11/26 07:45:19;;;;;;;;;;;;;;;9.99;62.56;98122.66;4207360;28;5705;-61
2022/11/26 07:47:22;;;;;;;;;;;;;;;10.22;62.13;98122.97;4208327;28;5193;-61
2022/11/26 07:49:24;;;;;;;;;;;;;;;10.43;61.52;98130.50;4202283;28;7792;-62
2022/11/26 07:51:30;;;;;;;;;;;;;;;10.58;61.58;98144.75;4210469;28;5776;-62
2022/11/26 07:53:34;;;;;;;;;;;;;;;10.71;61.35;98141.66;4215720;28;5707;-61
2022/11/26 07:55:38;;;;;;;;;;;;;;;10.79;60.74;98145.16;4217674;28;5680;-62
2022/11/26 07:57:40;;;;;;;;;;;;;;;10.86;60.86;98142.69;4224729;28;5904;-62
2022/11/26 07:59:44;;;;;;;;;;;;;;;10.90;60.72;98146.69;4214336;28;5746;-62
2022/11/26 08:01:47;;;;;;;;;;;;;;;10.97;60.81;98138.91;4214224;28;5686;-62
2022/11/26 08:03:51;;;;;;;;;;;;;;;11.01;60.46;98154.31;4216666;28;5941;-62
2022/11/26 08:05:54;;;;;;;;;;;;;;;11.07;60.28;98142.22;4220730;28;5771;-62
2022/11/26 08:07:59;;;;;;;;;;;;;;;11.09;60.37;98138.41;4231603;28;5672;-62
2022/11/26 08:10:01;;;;;;;;;;;;;;;11.17;60.21;98150.03;4215348;28;5753;-62
2022/11/26 08:12:05;;;;;;;;;;;;;;;11.24;60.14;98153.69;4214342;28;5698;-62
2022/11/26 08:14:11;;;;;;;;;;;;;;;11.28;59.67;98157.66;4220030;28;5684;-63
2022/11/26 08:16:16;;;;;;;;;;;;;;;11.32;59.79;98154.50;4213019;28;5720;-62
2022/11/26 08:18:18;;;;;;;;;;;;;;;11.34;59.45;98162.28;4221631;28;5677;-63
2022/11/26 08:20:21;;;;;;;;;;;;;;;11.34;59.85;98162.28;4212462;28;5682;-62
2022/11/26 08:22:30;;;;;;;;;;;;;;;11.36;59.48;98168.25;4231487;28;5673;-63
2022/11/26 08:24:34;;;;;;;;;;;;;;;11.39;59.40;98162.63;4219331;28;5689;-63
2022/11/26 08:26:38;;;;;;;;;;;;;;;11.42;59.43;98167.56;4208747;28;5705;-63
2022/11/26 08:28:47;;;;;;;;;;;;;;;11.43;59.36;98158.63;4212457;28;5693;-62
2022/11/26 08:30:50;;;;;;;;;;;;;;;11.47;58.99;98159.97;4213214;28;5706;-63
2022/11/26 08:32:54;;;;;;;;;;;;;;;11.49;59.17;98157.16;4213206;28;5724;-63
2022/11/26 08:34:56;;;;;;;;;;;;;;;11.48;59.32;98151.03;4213713;28;5701;-63
2022/11/26 08:36:59;;;;;;;;;;;;;;;11.51;59.29;98145.41;4212648;28;5903;-63
2022/11/26 08:39:02;;;;;;;;;;;;;;;11.51;59.00;98147.22;4212851;28;5733;-63
2022/11/26 08:41:07;;;;;;;;;;;;;;;11.53;59.08;98150.53;4217991;28;5678;-62
2022/11/26 08:43:10;;;;;;;;;;;;;;;11.58;58.90;98148.22;4228485;27;5821;-62
2022/11/26 08:45:12;;;;;;;;;;;;;;;11.61;58.63;98156.66;4225754;28;6146;-61
2022/11/26 08:47:15;;;;;;;;;;;;;;;11.63;58.80;98152.00;4219511;28;5529;-62
2022/11/26 08:49:19;;;;;;;;;;;;;;;11.65;58.87;98155.31;4219557;28;5689;-62
2022/11/26 08:51:22;;;;;;;;;;;;;;;11.66;58.30;98149.06;4225825;28;5818;-62
2022/11/26 08:53:27;;;;;;;;;;;;;;;11.67;58.27;98149.88;4219157;28;5619;-62
2022/11/26 08:55:29;;;;;;;;;;;;;;;11.68;58.33;98150.72;4219260;28;6392;-62
2022/11/26 08:57:52;;;;;;;;;;;;;;;11.71;58.49;98155.66;4219274;28;5926;-62
2022/11/26 08:59:55;;;;;;;;;;;;;;;11.71;58.37;98163.59;4219262;28;7700;-62
2022/11/26 09:01:58;;;;;;;;;;;;;;;11.74;58.48;98160.63;4226040;28;5850;-62
2022/11/26 09:04:03;;;;;;;;;;;;;;;11.76;58.29;98161.28;4226339;28;5525;-62
2022/11/26 09:06:08;;;;;;;;;;;;;;;11.76;58.19;98156.81;4208410;28;5680;-62
2022/11/26 09:08:11;;;;;;;;;;;;;;;11.76;57.94;98167.41;4235740;28;5602;-62
2022/11/26 09:10:14;;;;;;;;;;;;;;;11.77;58.19;98170.88;4220049;28;5601;-62
2022/11/26 09:12:17;;;;;;;;;;;;;;;11.78;58.00;98164.56;4234605;28;5597;-62
2022/11/26 09:14:23;;;;;;;;;;;;;;;11.80;57.78;98163.47;4229305;28;5621;-62
2022/11/26 09:16:26;;;;;;;;;;;;;;;11.84;58.01;98164.78;4233312;28;6387;-63
2022/11/26 09:18:29;;;;;;;;;;;;;;;11.89;57.92;98172.22;4218733;28;5853;-62
2022/11/26 09:20:32;;;;;;;;;;;;;;;11.90;57.79;98168.59;4218864;28;5632;-62
2022/11/26 09:22:36;;;;;;;;;;;;;;;11.87;57.73;98161.78;4219962;28;5620;-63
2022/11/26 09:24:39;;;;;;;;;;;;;;;11.88;57.81;98167.91;4217071;28;5828;-63
2022/11/26 09:26:42;;;;;;;;;;;;;;;11.91;57.52;98171.06;4215898;28;5629;-63
2022/11/26 09:28:44;;;;;;;;;;;;;;;11.95;57.61;98176.88;4226969;28;5104;-63
2022/11/26 09:30:48;;;;;;;;;;;;;;;11.96;57.30;98175.88;4216895;28;7667;-63
2022/11/26 09:32:50;;;;;;;;;;;;;;;11.95;57.50;98174.22;4223868;28;5775;-64
2022/11/26 09:34:53;;;;;;;;;;;;;;;11.93;57.42;98169.09;4218677;28;5696;-64
2022/11/26 09:36:56;;;;;;;;;;;;;;;11.97;57.35;98168.75;4212494;28;5624;-63
2022/11/26 09:39:00;;;;;;;;;;;;;;;12.02;57.22;98163.78;4217753;28;5604;-64
2022/11/26 09:41:13;;;;;;;;;;;;;;;12.04;56.92;98164.44;4222753;28;5609;-62
2022/11/26 09:43:23;;;;;;;;;;;;;;;12.08;56.94;98169.22;4186016;28;5841;-62
2022/11/26 09:45:37;;;;;;;;;;;;;;;12.07;56.76;98164.09;4187774;28;5901;-62
2022/11/26 09:47:42;;;;;;;;;;;;;;;12.07;56.78;98159.59;4187948;28;5730;-62
2022/11/26 09:49:57;;;;;;;;;;;;;;;12.08;57.13;98163.09;4185620;28;5706;-62
2022/11/26 09:52:00;;;;;;;;;;;;;;;12.08;56.78;98169.22;4185412;28;5887;-62
2022/11/26 09:54:05;;;;;;;;;;;;;;;12.08;56.63;98163.91;4185143;28;5723;-62
2022/11/26 09:56:14;;;;;;;;;;;;;;;12.12;56.73;98161.78;4184711;28;5718;-62
2022/11/26 09:58:22;;;;;;;;;;;;;;;12.12;56.69;98159.94;4185455;28;6512;-63
2022/11/26 10:00:32;;;;;;;;;;;;;;;12.15;56.83;98156.94;4191189;28;5781;-63
2022/11/26 10:02:38;;;;;;;;;;;;;;;12.15;56.56;98151.66;4218222;28;5739;-62
2022/11/26 10:04:41;;;;;;;;;;;;;;;12.15;56.49;98145.50;4218919;28;5668;-63
2022/11/26 10:06:51;;;;;;;;;;;;;;;12.17;56.28;98139.03;4218439;28;5819;-62
2022/11/26 10:09:04;;;;;;;;;;;;;;;12.21;56.21;98137.69;4218700;28;5668;-63
2022/11/26 10:11:18;;;;;;;;;;;;;;;12.25;56.13;98140.84;4218457;28;5767;-61
2022/11/26 10:13:28;;;;;;;;;;;;;;;12.27;56.36;98130.91;4218277;28;5700;-61
2022/11/26 10:15:38;;;;;;;;;;;;;;;12.32;56.00;98138.31;4190863;28;5722;-62
2022/11/26 10:17:51;;;;;;;;;;;;;;;12.33;56.06;98132.03;4186761;28;5916;-66
2022/11/26 10:20:23;;;;;;;;;;;;;;;12.31;55.81;98123.41;4192338;28;5705;-65
2022/11/26 10:22:32;;;;;;;;;;;;;;;12.33;55.83;98122.25;4192356;28;6393;-65
2022/11/26 10:24:40;;;;;;;;;;;;;;;12.33;55.52;98129.38;4189089;28;5841;-66
2022/11/26 10:26:45;;;;;;;;;;;;;;;12.36;55.68;98134.34;4188497;28;5742;-69
2022/11/26 10:28:52;;;;;;;;;;;;;;;12.40;55.45;98140.94;4186023;28;5714;-68
2022/11/26 10:30:58;;;;;;;;;;;;;;;12.42;55.59;98126.50;4186711;28;5126;-69
2022/11/26 10:33:03;;;;;;;;;;;;;;;12.44;55.86;98116.56;4196758;28;6405;-70
2022/11/26 10:35:07;;;;;;;;;;;;;;;12.49;55.85;98121.38;4200429;28;5693;-70
2022/11/26 10:37:10;;;;;;;;;;;;;;;12.49;55.39;98116.06;4193196;28;5768;-70
2022/11/26 10:39:14;;;;;;;;;;;;;;;12.49;55.54;98113.41;4192000;28;5869;-69
2022/11/26 10:41:19;;;;;;;;;;;;;;;12.50;55.55;98112.41;4194373;28;5710;-69
2022/11/26 10:43:24;;;;;;;;;;;;;;;12.52;55.91;98110.41;4212366;28;5612;-69
2022/11/26 10:45:36;;;;;;;;;;;;;;;12.50;55.61;98107.91;4214583;28;5819;-66
2022/11/26 10:47:39;;;;;;;;;;;;;;;12.51;55.57;98106.09;4226993;28;5731;-65
2022/11/26 10:49:42;;;;;;;;;;;;;;;12.52;55.56;98099.78;4197324;28;5705;-66
2022/11/26 10:51:48;;;;;;;;;;;;;;;12.50;55.65;98104.44;4220213;28;5704;-66
2022/11/26 10:53:52;;;;;;;;;;;;;;;12.49;55.79;98095.66;4216078;28;5751;-66
2022/11/26 10:55:58;;;;;;;;;;;;;;;12.50;55.64;98092.00;4212532;28;5938;-66
2022/11/26 10:58:04;;;;;;;;;;;;;;;12.51;55.55;98100.78;4215836;28;5778;-66
2022/11/26 11:00:30;;;;;;;;;;;;;;;12.52;55.50;98097.13;4207977;28;5771;-65
2022/11/26 11:02:37;;;;;;;;;;;;;;;12.52;55.47;98100.63;4210097;28;5698;-65
2022/11/26 11:04:45;;;;;;;;;;;;;;;12.49;55.59;98100.16;4206823;28;7034;-66
2022/11/26 11:06:48;;;;;;;;;;;;;;;12.50;55.79;98107.91;4215492;28;5722;-65
2022/11/26 11:08:52;;;;;;;;;;;;;;;12.52;55.37;98103.25;4216535;28;5742;-66
2022/11/26 11:10:57;;;;;;;;;;;;;;;12.52;55.68;98099.78;4217016;28;5684;-69
2022/11/26 11:13:10;;;;;;;;;;;;;;;12.53;55.44;98096.97;4200247;28;5741;-71
2022/11/26 11:15:22;;;;;;;;;;;;;;;12.57;55.32;98096.59;4204191;28;5634;-71
2022/11/26 11:17:32;;;;;;;;;;;;;;;12.61;55.63;98092.63;4213720;28;5634;-73
2022/11/26 11:19:36;;;;;;;;;;;;;;;12.63;55.55;98086.13;4201512;28;5672;-69
2022/11/26 11:21:39;;;;;;;;;;;;;;;12.66;55.62;98091.09;4214849;28;5774;-70
2022/11/26 11:23:49;;;;;;;;;;;;;;;12.68;55.46;98088.25;4214179;28;5845;-67
2022/11/26 11:26:21;;;;;;;;;;;;;;;12.70;55.39;98084.44;4209710;28;5624;-72
2022/11/26 11:28:27;;;;;;;;;;;;;;;12.72;55.22;98086.91;4188795;28;5849;-72
2022/11/26 11:30:35;;;;;;;;;;;;;;;12.73;55.25;98092.03;4213966;28;5675;-70
2022/11/26 11:32:40;;;;;;;;;;;;;;;12.75;55.33;98087.38;4214671;28;5798;-71
2022/11/26 11:34:43;;;;;;;;;;;;;;;12.76;55.34;98090.88;4217304;28;5071;-71
2022/11/26 11:36:59;;;;;;;;;;;;;;;12.74;55.33;98088.38;4220876;28;7757;-69
2022/11/26 11:39:03;;;;;;;;;;;;;;;12.74;55.27;98093.69;4212808;28;5757;-72
2022/11/26 11:41:20;;;;;;;;;;;;;;;12.72;55.39;98093.06;4202371;28;5639;-73
2022/11/26 11:43:25;;;;;;;;;;;;;;;12.74;55.17;98090.22;4206094;28;5618;-73
2022/11/26 11:45:39;;;;;;;;;;;;;;;12.76;55.01;98089.03;4208912;28;5641;-70
2022/11/26 11:47:43;;;;;;;;;;;;;;;12.78;55.14;98083.56;4210609;28;5707;-72
2022/11/26 11:50:03;;;;;;;;;;;;;;;12.77;54.95;98082.72;4188008;28;5905;-72
2022/11/26 11:52:18;;;;;;;;;;;;;;;12.76;54.91;98078.41;4211570;28;5734;-72
2022/11/26 11:54:27;;;;;;;;;;;;;;;12.75;55.13;98089.22;4203291;28;5630;-72
2022/11/26 11:56:36;;;;;;;;;;;;;;;12.73;54.96;98094.69;4210449;28;5597;-67
2022/11/26 11:59:09;;;;;;;;;;;;;;;12.73;54.88;98092.03;4212606;28;6297;-72
2022/11/26 12:01:25;;;;;;;;;;;;;;;12.75;55.04;98087.38;4204871;28;5097;-70
2022/11/26 12:04:03;;;;;;;;;;;;;;;12.79;54.78;98085.19;4203175;28;5826;-67
2022/11/26 12:06:20;;;;;;;;;;;;;;;12.79;54.77;98075.41;4133652;28;5785;-68
2022/11/26 12:08:38;;;;;;;;;;;;;;;12.78;55.02;98068.44;4150509;28;5789;-68
2022/11/26 12:10:50;;;;;;;;;;;;;;;12.77;54.95;98069.47;4149840;28;5843;-67
2022/11/26 12:12:56;;;;;;;;;;;;;;;12.77;54.93;98064.16;4141190;28;5850;-67
2022/11/26 12:15:06;;;;;;;;;;;;;;;12.76;54.89;98051.06;4144024;28;5901;-67
2022/11/26 12:17:16;;;;;;;;;;;;;;;12.76;54.98;98059.84;4145588;28;7161;-68
2022/11/26 12:19:27;;;;;;;;;;;;;;;12.76;54.97;98051.06;4152346;28;5909;-68
2022/11/26 12:21:37;;;;;;;;;;;;;;;12.74;55.05;98048.59;4156299;28;5809;-68
2022/11/26 12:23:47;;;;;;;;;;;;;;;12.75;55.04;98047.59;4147043;28;5851;-68
2022/11/26 12:25:55;;;;;;;;;;;;;;;12.75;54.76;98052.88;4159531;28;5839;-68
2022/11/26 12:28:02;;;;;;;;;;;;;;;12.76;54.65;98059.84;4152529;28;5902;-68
2022/11/26 12:30:12;;;;;;;;;;;;;;;12.75;54.83;98060.84;4154596;28;5756;-68
2022/11/26 12:32:21;;;;;;;;;;;;;;;12.75;54.92;98057.38;4150867;28;5798;-68
2022/11/26 12:34:31;;;;;;;;;;;;;;;12.72;54.48;98055.91;4151125;28;5910;-68
2022/11/26 12:36:42;;;;;;;;;;;;;;;12.71;54.86;98061.38;4159507;28;5786;-68
2022/11/26 12:38:51;;;;;;;;;;;;;;;12.69;54.94;98064.22;4156134;28;5767;-68
2022/11/26 12:41:01;;;;;;;;;;;;;;;12.71;54.72;98064.88;4153008;28;6837;-67
2022/11/26 12:43:12;;;;;;;;;;;;;;;12.71;54.85;98067.53;4218605;28;5624;-68
2022/11/26 12:45:20;;;;;;;;;;;;;;;12.74;54.70;98067.16;4228925;28;5593;-68
2022/11/26 12:47:29;;;;;;;;;;;;;;;12.76;54.80;98070.47;4231335;28;5684;-67
2022/11/26 12:49:38;;;;;;;;;;;;;;;12.76;54.85;98064.31;4218981;28;5672;-67
2022/11/26 12:51:45;;;;;;;;;;;;;;;12.77;54.68;98056.19;4227864;28;5624;-68
2022/11/26 12:53:55;;;;;;;;;;;;;;;12.78;54.76;98057.00;4224766;28;5601;-68
2022/11/26 12:56:08;;;;;;;;;;;;;;;12.81;54.43;98043.41;4223150;28;5620;-67
2022/11/26 12:58:15;;;;;;;;;;;;;;;12.80;54.50;98042.59;4202690;28;7074;-68
2022/11/26 13:00:21;;;;;;;;;;;;;;;12.81;54.39;98030.16;4229126;28;5594;-68
2022/11/26 13:02:34;;;;;;;;;;;;;;;12.81;54.68;98023.00;4232904;28;5620;-67
2022/11/26 13:04:37;;;;;;;;;;;;;;;12.82;54.60;98018.53;4222666;28;5593;-67
2022/11/26 13:06:55;;;;;;;;;;;;;;;12.83;54.50;98018.34;4222920;28;5616;-67
2022/11/26 13:09:08;;;;;;;;;;;;;;;12.83;54.89;98013.03;4227364;28;5694;-67
2022/11/26 13:11:34;;;;;;;;;;;;;;;12.85;54.34;98009.38;4219233;28;5628;-67
2022/11/26 13:13:44;;;;;;;;;;;;;;;12.80;54.41;98018.72;4223347;28;5124;-67
2022/11/26 13:15:53;;;;;;;;;;;;;;;12.84;54.39;98013.84;4217892;28;5612;-68
2022/11/26 13:17:59;;;;;;;;;;;;;;;12.87;54.51;98013.50;4211492;28;5642;-67
2022/11/26 13:20:11;;;;;;;;;;;;;;;12.90;54.38;98004.34;4187425;28;5735;-67
2022/11/26 13:22:38;;;;;;;;;;;;;;;12.91;54.39;98000.69;4206984;28;5679;-68
2022/11/26 13:25:01;;;;;;;;;;;;;;;12.90;54.18;98001.69;4222074;28;5103;-67
2022/11/26 13:27:22;;;;;;;;;;;;;;;12.92;54.56;98002.38;4218596;28;5612;-67
2022/11/26 13:29:47;;;;;;;;;;;;;;;12.91;54.50;97998.88;4225986;28;5703;-67
2022/11/26 13:32:09;;;;;;;;;;;;;;;12.92;54.55;97997.06;4220745;28;5692;-67
2022/11/26 13:34:26;;;;;;;;;;;;;;;12.92;54.52;97991.75;4223969;28;5625;-67
2022/11/26 13:36:47;;;;;;;;;;;;;;;12.91;54.42;97988.28;4230364;28;5613;-67
2022/11/26 13:39:09;;;;;;;;;;;;;;;12.90;54.46;97983.13;4218128;28;5802;-67
2022/11/26 13:41:35;;;;;;;;;;;;;;;12.92;54.46;97989.09;4218565;28;5623;-67
2022/11/26 13:44:18;;;;;;;;;;;;;;;12.89;54.17;97982.28;4218500;28;5616;-67
2022/11/26 13:46:24;;;;;;;;;;;;;;;12.91;54.05;97998.03;4225925;28;5707;-68
2022/11/26 13:48:34;;;;;;;;;;;;;;;12.91;53.82;97993.59;4217359;28;5847;-67
2022/11/26 13:50:45;;;;;;;;;;;;;;;12.93;53.81;97993.41;4217631;28;5798;-68
2022/11/26 13:52:52;;;;;;;;;;;;;;;12.94;53.97;97992.38;4222756;28;5601;-68
2022/11/26 13:54:59;;;;;;;;;;;;;;;12.98;53.92;97993.66;4217766;28;5832;-67
2022/11/26 13:57:06;;;;;;;;;;;;;;;12.98;53.79;97991.00;4224398;28;5811;-67
2022/11/26 13:59:17;;;;;;;;;;;;;;;12.98;53.89;97988.38;4199261;28;5880;-67
2022/11/26 14:01:28;;;;;;;;;;;;;;;13.00;53.60;97997.78;4219779;28;5680;-67
2022/11/26 14:03:49;;;;;;;;;;;;;;;13.02;53.52;97987.00;4221505;28;5680;-67
2022/11/26 14:06:09;;;;;;;;;;;;;;;13.01;53.65;97986.16;4224534;28;5657;-67
2022/11/26 14:08:33;;;;;;;;;;;;;;;12.98;53.75;97983.06;4223071;28;5597;-67
2022/11/26 14:10:43;;;;;;;;;;;;;;;12.98;53.62;97983.06;4202617;28;5742;-67
2022/11/26 14:13:11;;;;;;;;;;;;;;;13.00;53.80;97987.19;4225756;28;5669;-67
2022/11/26 14:15:50;;;;;;;;;;;;;;;13.00;53.56;98007.59;4210867;28;5775;-66
2022/11/26 14:17:56;;;;;;;;;;;;;;;12.95;53.89;98004.66;4231426;28;5592;-66
2022/11/26 14:20:04;;;;;;;;;;;;;;;12.96;53.67;98006.31;4219249;28;6373;-67
2022/11/26 14:22:25;;;;;;;;;;;;;;;12.97;53.86;98002.66;4217816;28;5707;-67
2022/11/26 14:24:54;;;;;;;;;;;;;;;12.99;53.78;98012.06;4217663;28;5703;-67
2022/11/26 14:26:56;;;;;;;;;;;;;;;13.01;53.87;98009.22;4217977;28;5930;-67
2022/11/26 14:29:10;;;;;;;;;;;;;;;13.00;53.67;98007.59;4217641;28;5668;-67
2022/11/26 14:31:14;;;;;;;;;;;;;;;12.99;53.39;98013.91;4217034;28;5620;-68
2022/11/26 14:33:23;;;;;;;;;;;;;;;12.95;53.47;98005.47;4221895;28;5801;-67
2022/11/26 14:35:30;;;;;;;;;;;;;;;12.96;53.59;98011.59;4222928;28;5597;-67
2022/11/26 14:37:37;;;;;;;;;;;;;;;12.96;53.37;98003.66;4234646;28;5665;-68
2022/11/26 14:39:40;;;;;;;;;;;;;;;12.96;53.60;98012.44;4223217;28;5727;-68
2022/11/26 14:41:51;;;;;;;;;;;;;;;12.97;53.30;98008.78;4216871;28;5612;-67
2022/11/26 14:44:07;;;;;;;;;;;;;;;12.96;53.38;97995.69;4217476;28;5776;-67
2022/11/26 14:46:13;;;;;;;;;;;;;;;12.91;53.48;97998.88;4215513;28;5730;-67
2022/11/26 14:48:24;;;;;;;;;;;;;;;12.89;53.33;98000.03;4234201;28;5594;-68
2022/11/26 14:50:30;;;;;;;;;;;;;;;12.86;53.59;97995.09;4224732;28;5889;-67
2022/11/26 14:52:37;;;;;;;;;;;;;;;12.87;53.34;97994.91;4225768;28;5589;-67
2022/11/26 14:54:41;;;;;;;;;;;;;;;12.89;53.23;97990.25;4220503;28;5691;-67
2022/11/26 14:56:46;;;;;;;;;;;;;;;12.90;53.51;97991.06;4230944;28;5770;-67
2022/11/26 14:58:53;;;;;;;;;;;;;;;12.90;53.53;97997.22;4234398;28;5774;-67
2022/11/26 15:01:06;;;;;;;;;;;;;;;12.89;53.22;97989.44;4219244;28;6422;-67
2022/11/26 15:03:22;;;;;;;;;;;;;;;12.87;53.57;97984.31;4200564;28;5846;-67
2022/11/26 15:05:26;;;;;;;;;;;;;;;12.89;53.29;97984.13;4234166;28;5597;-67
2022/11/26 15:07:30;;;;;;;;;;;;;;;12.87;53.36;97979.00;4225951;28;5597;-67
2022/11/26 15:09:35;;;;;;;;;;;;;;;12.86;53.34;97979.19;4228661;28;5621;-67
2022/11/26 15:11:41;;;;;;;;;;;;;;;12.82;53.20;97971.59;4215585;28;5770;-67
2022/11/26 15:13:46;;;;;;;;;;;;;;;12.82;53.29;97971.59;4222106;28;5601;-68
2022/11/26 15:15:53;;;;;;;;;;;;;;;12.78;53.32;97978.22;4192544;28;5766;-67
2022/11/26 15:17:58;;;;;;;;;;;;;;;12.79;53.28;97974.56;4230602;28;5593;-67
2022/11/26 15:20:06;;;;;;;;;;;;;;;12.81;53.33;97977.91;4221300;28;5604;-66
2022/11/26 15:22:19;;;;;;;;;;;;;;;12.82;53.36;97974.25;4202846;28;5737;-67
2022/11/26 15:24:22;;;;;;;;;;;;;;;12.76;53.43;97974.94;4217501;28;5804;-67
2022/11/26 15:26:31;;;;;;;;;;;;;;;12.74;53.51;97976.13;4234130;28;5621;-67
2022/11/26 15:28:37;;;;;;;;;;;;;;;12.73;53.37;97980.59;4221865;28;5728;-67
2022/11/26 15:30:40;;;;;;;;;;;;;;;12.70;53.26;97970.34;4216157;28;5707;-67
2022/11/26 15:32:43;;;;;;;;;;;;;;;12.66;53.58;97978.81;4216972;28;5853;-67
2022/11/26 15:34:46;;;;;;;;;;;;;;;12.65;53.16;97970.03;4207863;28;5635;-67
2022/11/26 15:36:49;;;;;;;;;;;;;;;12.62;53.52;97959.78;4200438;28;5682;-67
2022/11/26 15:39:02;;;;;;;;;;;;;;;12.60;53.37;97955.69;4200195;28;5706;-67
2022/11/26 15:41:08;;;;;;;;;;;;;;;12.57;53.53;97959.50;4218112;28;5627;-67
2022/11/26 15:43:21;;;;;;;;;;;;;;;12.54;53.52;97970.47;4199754;28;5619;-67
2022/11/26 15:45:33;;;;;;;;;;;;;;;12.53;53.63;97972.28;4211846;28;5696;-67
2022/11/26 15:47:36;;;;;;;;;;;;;;;12.52;53.59;97961.84;4200460;28;5631;-68
2022/11/26 15:49:40;;;;;;;;;;;;;;;12.53;53.34;97964.34;4211989;28;5711;-67
2022/11/26 15:51:51;;;;;;;;;;;;;;;12.54;53.60;97959.84;4216991;28;5189;-67
2022/11/26 15:53:54;;;;;;;;;;;;;;;12.51;53.64;97966.34;4219659;28;5632;-67
2022/11/26 15:55:57;;;;;;;;;;;;;;;12.51;53.80;97966.34;4227322;28;5822;-66
2022/11/26 15:58:02;;;;;;;;;;;;;;;12.44;53.30;97969.88;4221983;28;5671;-68
2022/11/26 16:00:19;;;;;;;;;;;;;;;12.43;53.65;97976.16;4221031;28;5621;-67
2022/11/26 16:02:24;;;;;;;;;;;;;;;12.41;53.56;97978.19;4213905;28;5621;-67
2022/11/26 16:04:43;;;;;;;;;;;;;;;12.38;53.86;97970.59;4218462;28;5845;-67
2022/11/26 16:06:46;;;;;;;;;;;;;;;12.40;53.49;97966.75;4194545;28;5966;-68
2022/11/26 16:08:58;;;;;;;;;;;;;;;12.38;53.63;97966.09;4216249;28;7103;-68
2022/11/26 16:11:06;;;;;;;;;;;;;;;12.40;53.86;97968.56;4219633;28;5617;-68
2022/11/26 16:13:21;;;;;;;;;;;;;;;12.40;53.55;97968.56;4223132;28;5517;-68
2022/11/26 16:15:28;;;;;;;;;;;;;;;12.39;53.44;97974.88;4237515;28;5805;-68
2022/11/26 16:17:31;;;;;;;;;;;;;;;12.40;53.79;97973.88;4228719;28;7806;-67
2022/11/26 16:19:34;;;;;;;;;;;;;;;12.38;53.53;97967.94;4220241;28;5605;-68
2022/11/26 16:21:38;;;;;;;;;;;;;;;12.39;53.59;97981.00;4224385;28;5604;-68
2022/11/26 16:23:41;;;;;;;;;;;;;;;12.36;53.69;97983.19;4228559;28;5605;-67
2022/11/26 16:26:16;;;;;;;;;;;;;;;12.36;53.60;97993.81;4222395;28;5629;-67
2022/11/26 16:28:20;;;;;;;;;;;;;;;12.39;53.50;97977.53;4221910;28;5730;-68
2022/11/26 16:30:23;;;;;;;;;;;;;;;12.40;53.86;97993.25;4220076;28;5737;-67
2022/11/26 16:32:26;;;;;;;;;;;;;;;12.40;53.79;97993.25;4233833;28;5640;-68
2022/11/26 16:34:29;;;;;;;;;;;;;;;12.43;53.49;97994.75;4219395;28;5646;-68
2022/11/26 16:36:33;;;;;;;;;;;;;;;12.43;53.64;97981.47;4231578;28;5609;-67
2022/11/26 16:38:37;;;;;;;;;;;;;;;12.45;53.68;97982.13;4219680;28;5856;-68
2022/11/26 16:40:44;;;;;;;;;;;;;;;12.47;53.79;97980.16;4214060;28;5690;-67
2022/11/26 16:42:49;;;;;;;;;;;;;;;12.45;53.59;97977.63;4228068;28;5620;-67
2022/11/26 16:44:52;;;;;;;;;;;;;;;12.46;53.64;97974.00;4219691;28;5955;-68
2022/11/26 16:46:55;;;;;;;;;;;;;;;12.46;53.61;97983.81;4219680;28;5617;-68
2022/11/26 16:48:58;;;;;;;;;;;;;;;12.45;53.44;97984.78;4226661;28;5597;-68
2022/11/26 16:51:02;;;;;;;;;;;;;;;12.40;53.42;97985.31;4220456;28;5637;-68
2022/11/26 16:53:07;;;;;;;;;;;;;;;12.34;53.33;97986.00;4227357;28;5763;-67
2022/11/26 16:55:12;;;;;;;;;;;;;;;12.36;53.71;97988.50;4203271;28;5737;-67
2022/11/26 16:57:17;;;;;;;;;;;;;;;12.38;53.61;98000.56;4209348;28;5608;-67
2022/11/26 16:59:28;;;;;;;;;;;;;;;12.41;53.55;97988.78;4216429;28;6462;-68
2022/11/26 17:01:30;;;;;;;;;;;;;;;12.42;53.66;97985.13;4218392;28;7648;-68
2022/11/26 17:03:33;;;;;;;;;;;;;;;12.41;53.43;97981.66;4218733;28;6347;-67
2022/11/26 17:05:39;;;;;;;;;;;;;;;12.43;53.71;97979.66;4232279;28;5621;-67
2022/11/26 17:07:45;;;;;;;;;;;;;;;12.44;53.49;97983.13;4222827;28;5707;-67
2022/11/26 17:09:49;;;;;;;;;;;;;;;12.44;53.53;97991.09;4216890;28;5624;-67
2022/11/26 17:11:52;;;;;;;;;;;;;;;12.46;53.73;97989.09;4227946;28;5683;-67
2022/11/26 17:13:55;;;;;;;;;;;;;;;12.46;53.77;97997.88;4226011;28;5824;-67
2022/11/26 17:16:03;;;;;;;;;;;;;;;12.46;53.29;97989.09;4220841;28;5521;-67
2022/11/26 17:18:16;;;;;;;;;;;;;;;12.45;53.31;97992.72;4218042;28;5814;-67
2022/11/26 17:20:24;;;;;;;;;;;;;;;12.44;53.42;97991.09;4220884;28;5604;-67
2022/11/26 17:22:27;;;;;;;;;;;;;;;12.44;53.61;97993.72;4231325;28;5854;-68
2022/11/26 17:24:33;;;;;;;;;;;;;;;12.40;53.59;97993.25;4222116;28;5068;-67
2022/11/26 17:26:36;;;;;;;;;;;;;;;12.41;53.75;97996.75;4227210;28;7658;-68
2022/11/26 17:28:39;;;;;;;;;;;;;;;12.39;53.63;97993.44;4225191;28;5616;-70
2022/11/26 17:30:43;;;;;;;;;;;;;;;12.35;53.56;98005.41;4227234;28;5704;-70
2022/11/26 17:32:48;;;;;;;;;;;;;;;12.36;53.75;98005.22;4225612;28;5756;-68
2022/11/26 17:34:50;;;;;;;;;;;;;;;12.34;53.54;98007.22;4226884;28;5609;-68
2022/11/26 17:36:57;;;;;;;;;;;;;;;12.36;53.81;98001.75;4222513;28;6401;-68
2022/11/26 17:38:59;;;;;;;;;;;;;;;12.37;53.34;98000.75;4225417;28;5616;-69
2022/11/26 17:41:02;;;;;;;;;;;;;;;12.37;53.64;98004.22;4234973;28;5631;-69
2022/11/26 17:43:05;;;;;;;;;;;;;;;12.38;53.87;98002.41;4218534;28;5604;-67
2022/11/26 17:45:09;;;;;;;;;;;;;;;12.37;53.86;97998.94;4210398;28;5692;-68
2022/11/26 17:47:14;;;;;;;;;;;;;;;12.37;53.71;98000.75;4222620;28;5621;-69
2022/11/26 17:49:20;;;;;;;;;;;;;;;12.37;53.51;98006.06;4225291;28;5824;-68
2022/11/26 17:51:23;;;;;;;;;;;;;;;12.38;53.54;98007.72;4214547;28;5605;-69
2022/11/26 17:53:26;;;;;;;;;;;;;;;12.35;53.84;98023.97;4222756;28;5609;-68
2022/11/26 17:55:29;;;;;;;;;;;;;;;12.30;53.56;98019.19;4212531;28;5815;-69
2022/11/26 17:57:32;;;;;;;;;;;;;;;12.28;53.58;98013.22;4227134;28;5627;-66
2022/11/26 17:59:35;;;;;;;;;;;;;;;12.28;53.61;98015.06;4226601;28;5757;-66
2022/11/26 18:01:38;;;;;;;;;;;;;;;12.24;53.89;98020.72;4214544;28;5881;-66
2022/11/26 18:03:42;;;;;;;;;;;;;;;12.23;53.72;98008.47;4219608;28;5729;-66
2022/11/26 18:05:46;;;;;;;;;;;;;;;12.24;53.96;98018.06;4222699;28;5678;-67
2022/11/26 18:07:49;;;;;;;;;;;;;;;12.25;53.88;98013.59;4226380;28;5672;-66
2022/11/26 18:09:52;;;;;;;;;;;;;;;12.26;53.51;98017.06;4219113;28;5719;-67
2022/11/26 18:11:56;;;;;;;;;;;;;;;12.25;53.73;98013.59;4213407;28;5851;-67
2022/11/26 18:13:59;;;;;;;;;;;;;;;12.24;53.76;98014.59;4215467;28;5814;-66
2022/11/26 18:16:02;;;;;;;;;;;;;;;12.24;54.08;98012.75;4206649;28;5738;-68
2022/11/26 18:18:06;;;;;;;;;;;;;;;12.24;54.04;98012.75;4190036;28;6431;-67
2022/11/26 18:20:09;;;;;;;;;;;;;;;12.24;53.65;98011.94;4213176;28;5713;-69
2022/11/26 18:22:16;;;;;;;;;;;;;;;12.26;53.62;98014.41;4218616;28;5612;-69
2022/11/26 18:24:18;;;;;;;;;;;;;;;12.26;53.79;98014.41;4225865;28;5698;-68
2022/11/26 18:26:21;;;;;;;;;;;;;;;12.27;53.66;98016.06;4214483;28;5683;-68
2022/11/26 18:28:24;;;;;;;;;;;;;;;12.26;53.81;98022.38;4217792;28;5700;-68
2022/11/26 18:30:29;;;;;;;;;;;;;;;12.24;53.91;98017.25;4221256;27;5609;-68
2022/11/26 18:32:32;;;;;;;;;;;;;;;12.24;53.83;98017.25;4216009;28;5582;-69
2022/11/26 18:34:35;;;;;;;;;;;;;;;12.26;53.97;98022.38;4222160;28;5613;-69
2022/11/26 18:36:38;;;;;;;;;;;;;;;12.23;53.86;98013.75;4223816;28;5608;-68
2022/11/26 18:38:42;;;;;;;;;;;;;;;12.24;53.94;98022.53;4208391;28;5631;-69
2022/11/26 18:40:45;;;;;;;;;;;;;;;12.24;53.92;98028.66;4217994;28;5703;-68
2022/11/26 18:42:51;;;;;;;;;;;;;;;12.24;53.73;98025.19;4223102;28;5601;-67
2022/11/26 18:44:54;;;;;;;;;;;;;;;12.24;54.04;98028.66;4217883;28;5624;-68
2022/11/26 18:46:57;;;;;;;;;;;;;;;12.23;54.06;98020.84;4225306;28;5704;-68
2022/11/26 18:48:59;;;;;;;;;;;;;;;12.21;53.89;98025.50;4218567;28;5616;-68
2022/11/26 18:51:03;;;;;;;;;;;;;;;12.19;54.05;98024.88;4217622;28;5636;-68
2022/11/26 18:53:06;;;;;;;;;;;;;;;12.19;53.79;98025.69;4215686;28;5817;-68
2022/11/26 18:55:10;;;;;;;;;;;;;;;12.19;54.31;98024.88;4216984;28;5617;-69
2022/11/26 18:57:12;;;;;;;;;;;;;;;12.19;54.10;98032.81;4215973;28;5859;-66